Time;durP1;ratioP1;P1;durP2;ratioP2;P2;SDS_P1;SDS_P2;PMS_P1;PMS_P2;Temp;Humidity;BMP_temperature;BMP_pressure;BME280_temperature;BME280_humidity;BME280_pressure;Samples;Min_cycle;Max_cycle;Signal;HPM_P1;HPM_P2
2021/09/21 00:02:00;;;;;;;;;;;;;;;18.64;52.40;102150.19;6196718;22;96767;-86
2021/09/21 00:04:29;;;;;;;;;;;;;;;18.57;52.19;102154.13;6198457;22;98606;-86
2021/09/21 00:06:55;;;;;;;;;;;;;;;18.61;52.36;102150.34;6196772;22;98184;-86
2021/09/21 00:09:22;;;;;;;;;;;;;;;18.56;52.64;102146.16;6166788;22;96933;-86
2021/09/21 00:11:49;;;;;;;;;;;;;;;18.11;53.71;102149.97;6195258;22;96796;-86
2021/09/21 00:14:15;;;;;;;;;;;;;;;17.99;54.06;102154.94;6194546;22;100702;-86
2021/09/21 00:16:42;;;;;;;;;;;;;;;18.29;53.65;102158.94;6171315;22;98931;-86
2021/09/21 00:19:08;;;;;;;;;;;;;;;18.08;54.36;102159.91;6210142;22;95796;-84
2021/09/21 00:21:37;;;;;;;;;;;;;;;18.04;54.92;102158.31;6187998;22;96051;-86
2021/09/21 00:24:04;;;;;;;;;;;;;;;18.00;54.68;102151.34;6214479;22;98131;-85
2021/09/21 00:26:31;;;;;;;;;;;;;;;17.75;54.76;102151.56;6214937;22;98806;-84
2021/09/21 00:29:00;;;;;;;;;;;;;;;18.07;54.63;102147.47;6215926;22;97630;-86
2021/09/21 00:31:36;;;;;;;;;;;;;;;18.35;53.51;102152.44;6215746;22;95922;-86
2021/09/21 00:34:07;;;;;;;;;;;;;;;18.21;54.14;102150.41;6212400;22;98828;-87
2021/09/21 00:36:35;;;;;;;;;;;;;;;18.12;53.71;102148.13;6212863;22;98292;-87
2021/09/21 00:39:06;;;;;;;;;;;;;;;18.46;52.87;102144.78;6213823;22;96567;-87
2021/09/21 00:41:33;;;;;;;;;;;;;;;18.40;53.23;102145.06;6201972;22;96739;-87
2021/09/21 00:44:03;;;;;;;;;;;;;;;18.14;54.14;102146.25;6194373;22;97910;-87
2021/09/21 00:46:30;;;;;;;;;;;;;;;18.16;54.18;102144.38;6194061;22;97977;-86
2021/09/21 00:48:56;;;;;;;;;;;;;;;18.25;53.58;102139.47;6194256;22;96623;-86
2021/09/21 00:51:24;;;;;;;;;;;;;;;18.18;54.19;102140.69;6193194;22;96889;-86
2021/09/21 00:53:50;;;;;;;;;;;;;;;18.41;53.21;102136.97;6166273;22;99120;-86
2021/09/21 00:56:18;;;;;;;;;;;;;;;17.81;55.30;102144.13;6194297;22;97714;-86
2021/09/21 00:58:45;;;;;;;;;;;;;;;18.14;54.21;102148.94;6193344;22;96604;-86
2021/09/21 01:01:11;;;;;;;;;;;;;;;18.39;53.33;102149.56;6167042;22;97059;-85
2021/09/21 01:03:39;;;;;;;;;;;;;;;18.33;53.61;102156.06;6194219;22;100444;-86
2021/09/21 01:06:07;;;;;;;;;;;;;;;17.67;55.14;102151.88;6192816;22;100154;-86
2021/09/21 01:08:34;;;;;;;;;;;;;;;17.42;56.50;102160.03;6194413;22;96550;-86
2021/09/21 01:11:01;;;;;;;;;;;;;;;17.70;55.40;102157.13;6195280;22;96764;-86
2021/09/21 01:13:30;;;;;;;;;;;;;;;18.09;54.48;102154.50;6193801;22;99898;-86
2021/09/21 01:15:57;;;;;;;;;;;;;;;17.95;54.47;102150.69;6193938;22;97992;-86
2021/09/21 01:18:23;;;;;;;;;;;;;;;18.16;53.77;102152.41;6194533;22;96576;-86
2021/09/21 01:20:50;;;;;;;;;;;;;;;17.96;54.58;102150.63;6194927;22;96650;-85
2021/09/21 01:23:19;;;;;;;;;;;;;;;17.52;55.61;102156.03;6209298;22;101352;-86
2021/09/21 01:25:45;;;;;;;;;;;;;;;17.70;55.68;102154.44;6209386;22;98617;-86
2021/09/21 01:28:13;;;;;;;;;;;;;;;17.48;56.71;102164.25;6212954;22;96816;-86
2021/09/21 01:30:40;;;;;;;;;;;;;;;17.50;56.11;102162.41;6214482;22;95935;-87
2021/09/21 01:33:06;;;;;;;;;;;;;;;17.79;55.47;102167.38;6213524;22;99250;-86
2021/09/21 01:35:32;;;;;;;;;;;;;;;18.11;54.20;102163.34;6212970;22;99393;-86
2021/09/21 01:38:00;;;;;;;;;;;;;;;17.65;55.23;102172.47;6214759;22;96355;-86
2021/09/21 01:40:28;;;;;;;;;;;;;;;17.66;55.45;102176.88;6214663;22;96955;-86
2021/09/21 01:42:55;;;;;;;;;;;;;;;17.91;54.51;102168.69;6214594;22;99006;-86
2021/09/21 01:45:22;;;;;;;;;;;;;;;17.51;55.84;102182.84;6214743;22;98269;-86
2021/09/21 01:53:16;;;;;;;;;;;;;;;17.76;54.69;102174.69;6188880;22;99428;-86
2021/09/21 02:01:20;;;;;;;;;;;;;;;17.98;53.79;102161.25;6198515;22;96493;-86
2021/09/21 02:03:48;;;;;;;;;;;;;;;18.01;53.63;102156.63;6198404;22;98230;-86
2021/09/21 02:06:17;;;;;;;;;;;;;;;18.11;53.55;102159.78;6196551;22;98116;-86
2021/09/21 02:08:44;;;;;;;;;;;;;;;17.90;53.54;102156.25;6200681;22;96596;-86
2021/09/21 02:11:14;;;;;;;;;;;;;;;17.99;53.54;102160.31;6200894;22;96742;-85
2021/09/21 02:13:41;;;;;;;;;;;;;;;18.07;53.36;102152.81;6196960;22;99070;-86
2021/09/21 02:16:07;;;;;;;;;;;;;;;18.19;52.94;102152.25;6199492;22;99312;-86
2021/09/21 02:18:35;;;;;;;;;;;;;;;17.65;54.34;102152.91;6200249;22;96593;-86
2021/09/21 02:21:04;;;;;;;;;;;;;;;17.97;54.10;102148.81;6205865;22;96985;-86
2021/09/21 02:23:30;;;;;;;;;;;;;;;17.91;53.89;102156.19;6205366;22;98067;-86
2021/09/21 02:26:02;;;;;;;;;;;;;;;17.76;54.77;102161.31;6206129;22;100648;-86
2021/09/21 02:28:34;;;;;;;;;;;;;;;17.46;55.52;102176.78;6210460;22;96553;-86
2021/09/21 02:31:01;;;;;;;;;;;;;;;17.50;55.13;102163.28;6180848;22;96794;-85
2021/09/21 02:36:24;;;;;;;;;;;;;;;17.95;54.21;102162.25;5051042;28;96619;-86
2021/09/21 02:38:51;;;;;;;;;;;;;;;17.96;53.62;102161.31;5053159;28;96755;-86
2021/09/21 02:41:17;;;;;;;;;;;;;;;17.99;53.38;102157.63;5030712;28;98808;-86
2021/09/21 02:43:46;;;;;;;;;;;;;;;18.11;53.17;102157.13;5028239;28;96728;-85
2021/09/21 02:46:14;;;;;;;;;;;;;;;18.19;53.14;102149.59;5029185;28;97085;-85
2021/09/21 02:48:40;;;;;;;;;;;;;;;18.20;52.66;102154.88;5032415;28;96850;-86
2021/09/21 02:51:07;;;;;;;;;;;;;;;17.92;53.48;102155.22;5032873;28;97815;-85
2021/09/21 02:56:19;;;;;;;;;;;;;;;17.96;53.60;102163.13;5037566;27;95935;-86
2021/09/21 02:58:48;;;;;;;;;;;;;;;17.96;53.76;102163.13;5037298;27;96744;-86
2021/09/21 03:01:14;;;;;;;;;;;;;;;17.98;53.67;102166.63;5053850;27;100793;-86
2021/09/21 03:03:45;;;;;;;;;;;;;;;18.03;53.39;102169.94;5031948;28;97455;-86
2021/09/21 03:06:20;;;;;;;;;;;;;;;17.91;53.59;102179.38;5055809;28;96293;-86
2021/09/21 03:09:01;;;;;;;;;;;;;;;17.76;53.70;102180.03;5057277;27;96403;-87
2021/09/21 03:11:29;;;;;;;;;;;;;;;17.88;53.72;102188.41;5053523;27;98989;-86
2021/09/21 03:19:25;;;;;;;;;;;;;;;18.08;53.34;102194.69;5040295;28;96694;-86
2021/09/21 03:21:52;;;;;;;;;;;;;;;18.05;53.41;102190.31;5021901;28;98725;-86
2021/09/21 03:24:20;;;;;;;;;;;;;;;17.90;53.39;102188.34;5039186;27;100159;-87
2021/09/21 03:26:46;;;;;;;;;;;;;;;17.97;53.72;102191.63;5039716;28;96585;-87
2021/09/21 03:29:13;;;;;;;;;;;;;;;18.05;53.48;102186.81;5038969;28;97161;-87
2021/09/21 03:31:43;;;;;;;;;;;;;;;17.58;54.83;102186.13;5039109;27;98102;-87
2021/09/21 03:34:11;;;;;;;;;;;;;;;17.88;53.55;102191.06;5038785;28;98032;-86
2021/09/21 03:36:37;;;;;;;;;;;;;;;17.98;53.58;102190.69;5058324;27;96818;-86
2021/09/21 03:39:03;;;;;;;;;;;;;;;17.71;54.46;102200.75;5046820;28;96764;-85
2021/09/21 03:41:31;;;;;;;;;;;;;;;17.62;54.56;102195.78;5037546;27;98239;-87
2021/09/21 03:43:58;;;;;;;;;;;;;;;17.70;54.48;102194.53;5020681;28;97033;-86
2021/09/21 03:46:25;;;;;;;;;;;;;;;17.85;53.89;102193.03;5014175;28;96611;-86
2021/09/21 03:48:54;;;;;;;;;;;;;;;17.84;53.87;102194.81;5007876;28;96653;-87
2021/09/21 03:51:21;;;;;;;;;;;;;;;17.94;53.66;102195.28;5007679;28;99311;-86
2021/09/21 03:53:47;;;;;;;;;;;;;;;17.92;53.75;102194.47;4990054;28;97640;-86
2021/09/21 03:56:14;;;;;;;;;;;;;;;18.04;53.44;102201.13;5008566;28;96897;-86
2021/09/21 03:58:42;;;;;;;;;;;;;;;17.78;54.36;102199.56;5011792;28;96819;-87
2021/09/21 04:01:09;;;;;;;;;;;;;;;17.90;53.74;102205.25;5023969;28;96992;-85
2021/09/21 04:03:43;;;;;;;;;;;;;;;18.02;53.46;102197.63;5007841;28;99421;-87
2021/09/21 04:06:10;;;;;;;;;;;;;;;17.54;54.80;102201.41;5008701;28;96658;-86
2021/09/21 04:08:38;;;;;;;;;;;;;;;17.49;55.04;102198.06;5008273;28;96806;-86
2021/09/21 04:11:05;;;;;;;;;;;;;;;17.57;54.77;102192.41;4992797;28;98638;-86
2021/09/21 04:13:35;;;;;;;;;;;;;;;17.61;54.67;102202.94;5011199;28;100383;-87
2021/09/21 04:16:03;;;;;;;;;;;;;;;17.60;54.59;102203.81;4997689;28;96694;-86
2021/09/21 04:18:30;;;;;;;;;;;;;;;17.68;54.33;102196.41;5017181;28;96805;-86
2021/09/21 04:20:56;;;;;;;;;;;;;;;17.63;54.78;102209.09;5022221;28;99625;-85
2021/09/21 04:23:23;;;;;;;;;;;;;;;17.69;54.69;102216.84;5022720;28;98067;-85
2021/09/21 04:25:52;;;;;;;;;;;;;;;17.83;55.13;102213.59;5024448;28;95901;-86
2021/09/21 04:28:20;;;;;;;;;;;;;;;17.71;54.68;102215.00;5024172;28;96100;-86
2021/09/21 04:30:47;;;;;;;;;;;;;;;17.75;54.34;102205.91;5013571;28;98375;-86
2021/09/21 04:33:16;;;;;;;;;;;;;;;17.82;54.11;102218.06;5006673;28;100207;-87
2021/09/21 04:35:44;;;;;;;;;;;;;;;17.92;53.77;102221.22;5006485;28;97004;-85
2021/09/21 04:38:11;;;;;;;;;;;;;;;17.76;54.17;102228.16;5022575;28;96869;-86
2021/09/21 04:40:38;;;;;;;;;;;;;;;17.68;54.46;102236.50;5005352;28;98569;-86
2021/09/21 04:45:48;;;;;;;;;;;;;;;17.42;55.15;102233.97;5027265;28;96900;-85
2021/09/21 04:48:16;;;;;;;;;;;;;;;17.55;54.81;102229.88;5027776;28;96837;-86
2021/09/21 04:50:43;;;;;;;;;;;;;;;17.72;54.26;102232.75;5030799;28;102349;-87
2021/09/21 04:53:09;;;;;;;;;;;;;;;17.71;54.26;102249.75;5027304;28;99155;-86
2021/09/21 04:55:36;;;;;;;;;;;;;;;17.90;53.58;102242.69;5027496;28;96772;-86
2021/09/21 04:58:04;;;;;;;;;;;;;;;17.53;54.77;102242.44;5025390;28;96769;-86
2021/09/21 05:00:32;;;;;;;;;;;;;;;17.66;54.31;102241.03;5028165;28;100269;-86
2021/09/21 05:03:04;;;;;;;;;;;;;;;17.82;53.87;102239.47;5008787;22;97240;-87
2021/09/21 05:05:32;;;;;;;;;;;;;;;17.81;53.90;102244.88;4967381;28;96617;-86
2021/09/21 05:07:59;;;;;;;;;;;;;;;17.88;53.64;102239.19;4967773;28;96635;-87
2021/09/21 05:10:26;;;;;;;;;;;;;;;17.28;55.20;102247.03;4967237;28;99879;-86
2021/09/21 05:12:52;;;;;;;;;;;;;;;17.66;54.20;102243.69;4966033;28;99897;-87
2021/09/21 05:15:19;;;;;;;;;;;;;;;17.68;54.20;102244.50;4966663;28;96779;-87
2021/09/21 05:17:45;;;;;;;;;;;;;;;17.72;54.03;102253.28;4967901;28;96788;-86
2021/09/21 05:20:12;;;;;;;;;;;;;;;17.55;54.57;102256.59;4966671;28;99879;-87
2021/09/21 05:25:43;;;;;;;;;;;;;;;17.76;53.91;102250.41;4980693;28;95938;-90
2021/09/21 05:28:09;;;;;;;;;;;;;;;18.01;53.18;102244.03;4982233;28;97065;-92
2021/09/21 05:30:36;;;;;;;;;;;;;;;17.73;54.15;102245.19;4976478;28;99517;-92
2021/09/21 05:33:04;;;;;;;;;;;;;;;17.70;53.93;102248.00;4971341;28;99264;-86
2021/09/21 05:35:31;;;;;;;;;;;;;;;17.91;52.91;102256.94;4970439;28;96734;-87
2021/09/21 05:38:00;;;;;;;;;;;;;;;17.58;54.23;102258.28;4963145;28;96778;-87
2021/09/21 05:40:28;;;;;;;;;;;;;;;17.95;53.31;102252.31;4959308;28;97474;-87
2021/09/21 05:42:55;;;;;;;;;;;;;;;18.10;52.49;102255.22;4981884;28;100143;-85
2021/09/21 05:45:24;;;;;;;;;;;;;;;18.04;52.56;102259.94;4982920;28;96418;-86
2021/09/21 05:47:51;;;;;;;;;;;;;;;18.06;52.56;102272.31;4982093;28;96570;-84
2021/09/21 05:50:20;;;;;;;;;;;;;;;18.33;52.00;102267.56;4982566;28;98993;-87
2021/09/21 05:52:51;;;;;;;;;;;;;;;18.44;51.40;102270.66;4981589;28;97856;-88
2021/09/21 05:55:34;;;;;;;;;;;;;;;18.52;50.95;102264.94;4982587;28;97205;-85
2021/09/21 06:01:02;;;;;;;;;;;;;;;18.01;51.78;102260.06;4976396;28;98580;-91
2021/09/21 06:03:35;;;;;;;;;;;;;;;17.95;52.09;102265.69;4980231;28;98295;-90
2021/09/21 06:06:04;;;;;;;;;;;;;;;18.17;51.50;102267.41;4977202;28;97162;-87
2021/09/21 06:08:32;;;;;;;;;;;;;;;18.33;51.13;102268.44;4968812;28;96623;-86
2021/09/21 06:10:58;;;;;;;;;;;;;;;17.87;52.12;102282.91;4994027;23;97811;-90
2021/09/21 06:16:10;;;;;;;;;;;;;;;18.31;51.05;102301.59;4974145;28;96777;-91
2021/09/21 06:18:41;;;;;;;;;;;;;;;18.13;51.27;102300.53;4972081;28;98572;-91
2021/09/21 06:21:14;;;;;;;;;;;;;;;17.96;51.41;102300.41;4975165;28;96950;-91
2021/09/21 06:23:41;;;;;;;;;;;;;;;18.55;50.22;102303.22;4979184;28;100246;-90
2021/09/21 06:26:07;;;;;;;;;;;;;;;18.32;50.70;102305.97;4978300;28;96891;-90
2021/09/21 06:31:27;;;;;;;;;;;;;;;18.63;50.06;102302.88;4978538;28;96739;-83
2021/09/21 06:33:56;;;;;;;;;;;;;;;18.70;49.86;102307.03;4978774;28;96820;-86
2021/09/21 06:36:23;;;;;;;;;;;;;;;18.73;50.06;102309.53;4973153;28;96701;-86
2021/09/21 06:38:50;;;;;;;;;;;;;;;17.91;51.89;102313.97;4960939;28;96650;-85
2021/09/21 06:41:17;;;;;;;;;;;;;;;18.18;52.10;102319.94;4970224;28;96905;-86
2021/09/21 06:43:44;;;;;;;;;;;;;;;18.20;51.85;102317.19;4973486;28;98002;-87
2021/09/21 06:46:10;;;;;;;;;;;;;;;18.67;50.97;102323.22;4973008;28;96712;-86
2021/09/21 06:48:43;;;;;;;;;;;;;;;18.96;50.21;102328.16;4972894;28;96965;-85
2021/09/21 06:51:12;;;;;;;;;;;;;;;18.75;50.54;102325.56;4969577;28;100225;-86
2021/09/21 06:53:41;;;;;;;;;;;;;;;18.98;50.11;102326.25;4965596;28;99251;-85
2021/09/21 06:56:30;;;;;;;;;;;;;;;19.11;49.35;102331.91;4974518;28;96455;-85
2021/09/21 06:59:03;;;;;;;;;;;;;;;19.05;49.45;102342.91;4971702;28;96611;-87
2021/09/21 07:01:31;;;;;;;;;;;;;;;19.33;49.07;102337.16;4971719;28;100131;-84
2021/09/21 07:04:04;;;;;;;;;;;;;;;18.95;49.64;102330.88;4965386;28;96840;-86
2021/09/21 07:09:33;;;;;;;;;;;;;;;19.49;48.23;102332.84;4975000;28;96615;-85
2021/09/21 07:12:01;;;;;;;;;;;;;;;19.46;48.12;102339.22;4972682;28;99332;-86
2021/09/21 07:14:30;;;;;;;;;;;;;;;19.23;47.92;102330.50;4977492;28;99717;-84
2021/09/21 07:16:56;;;;;;;;;;;;;;;19.41;47.72;102337.66;4978933;28;96690;-85
2021/09/21 07:19:27;;;;;;;;;;;;;;;18.51;50.02;102338.19;4979264;28;96561;-85
2021/09/21 07:21:54;;;;;;;;;;;;;;;18.95;48.21;102337.13;4980711;28;99711;-86
2021/09/21 07:24:23;;;;;;;;;;;;;;;18.96;48.24;102337.97;4982210;28;100773;-87
2021/09/21 07:27:04;;;;;;;;;;;;;;;18.94;47.49;102323.78;4983563;28;95826;-84
2021/09/21 07:29:43;;;;;;;;;;;;;;;19.03;47.28;102334.09;4984187;28;95944;-86
2021/09/21 07:32:13;;;;;;;;;;;;;;;19.17;47.28;102336.09;4983966;28;100540;-86
2021/09/21 07:34:40;;;;;;;;;;;;;;;19.56;46.66;102341.47;4979640;28;98293;-86
2021/09/21 07:37:09;;;;;;;;;;;;;;;19.39;46.46;102343.09;4968341;28;96917;-86
2021/09/21 07:39:36;;;;;;;;;;;;;;;19.60;45.73;102346.59;4967447;28;97001;-86
2021/09/21 07:42:04;;;;;;;;;;;;;;;19.64;45.41;102347.31;4964819;28;99893;-86
2021/09/21 07:44:30;;;;;;;;;;;;;;;19.83;44.56;102349.03;4965750;28;101173;-86
2021/09/21 07:47:00;;;;;;;;;;;;;;;19.98;44.36;102343.84;4967418;28;96861;-90
2021/09/21 07:49:26;;;;;;;;;;;;;;;20.05;44.38;102353.34;4968505;28;96672;-85
2021/09/21 07:51:53;;;;;;;;;;;;;;;20.16;44.01;102359.03;4965944;28;100637;-85
2021/09/21 07:54:19;;;;;;;;;;;;;;;20.16;44.30;102359.91;4971003;28;100457;-85
2021/09/21 07:56:46;;;;;;;;;;;;;;;20.16;44.04;102362.59;4980012;28;96868;-86
2021/09/21 07:59:13;;;;;;;;;;;;;;;19.82;44.07;102367.91;4977401;28;96838;-85
2021/09/21 08:01:40;;;;;;;;;;;;;;;19.49;44.38;102365.84;4961763;28;100085;-86
2021/09/21 08:04:08;;;;;;;;;;;;;;;19.48;44.41;102364.16;4971939;28;99799;-86
2021/09/21 08:06:35;;;;;;;;;;;;;;;19.75;42.52;102371.81;4980008;28;96537;-85
2021/09/21 08:09:01;;;;;;;;;;;;;;;20.10;42.21;102375.44;4976842;28;98649;-86
2021/09/21 08:11:29;;;;;;;;;;;;;;;20.35;42.00;102378.66;4975548;28;96857;-86
2021/09/21 08:13:55;;;;;;;;;;;;;;;20.33;40.66;102385.94;4977017;28;98039;-86
2021/09/21 08:16:23;;;;;;;;;;;;;;;20.20;40.09;102391.03;4979583;28;96882;-85
2021/09/21 08:18:50;;;;;;;;;;;;;;;20.05;40.29;102390.91;4977832;28;96937;-86
2021/09/21 08:21:18;;;;;;;;;;;;;;;19.84;41.01;102384.75;4989175;28;100435;-86
2021/09/21 08:23:44;;;;;;;;;;;;;;;20.55;39.84;102385.69;4981071;28;100176;-86
2021/09/21 08:26:11;;;;;;;;;;;;;;;19.78;41.38;102387.75;4983579;28;96492;-85
2021/09/21 08:28:37;;;;;;;;;;;;;;;20.20;39.54;102382.09;4981155;28;97846;-86
2021/09/21 08:31:04;;;;;;;;;;;;;;;20.33;39.01;102368.97;4979129;28;98750;-85
2021/09/21 08:33:30;;;;;;;;;;;;;;;20.35;38.42;102373.28;4973706;28;101180;-86
2021/09/21 08:35:59;;;;;;;;;;;;;;;20.00;38.44;102376.84;4962122;28;97503;-86
2021/09/21 08:38:27;;;;;;;;;;;;;;;20.58;37.60;102370.31;4962100;28;97161;-86
2021/09/21 08:40:54;;;;;;;;;;;;;;;20.61;37.79;102363.94;4961324;28;101972;-85
2021/09/21 08:43:20;;;;;;;;;;;;;;;20.75;37.50;102361.34;4962423;28;98052;-85
2021/09/21 08:45:47;;;;;;;;;;;;;;;20.49;37.45;102361.84;4963135;28;96924;-85
2021/09/21 08:48:14;;;;;;;;;;;;;;;20.63;37.50;102359.31;4962950;28;96805;-86
2021/09/21 08:50:41;;;;;;;;;;;;;;;20.90;37.41;102363.25;4962521;28;101425;-86
2021/09/21 08:53:08;;;;;;;;;;;;;;;20.52;35.96;102365.25;4962927;28;96816;-87
2021/09/21 08:55:36;;;;;;;;;;;;;;;20.61;35.79;102369.28;4963581;28;96768;-86
2021/09/21 08:58:03;;;;;;;;;;;;;;;20.83;36.35;102369.03;4964600;28;96918;-86
2021/09/21 09:00:30;;;;;;;;;;;;;;;20.95;35.80;102371.06;4965314;28;100790;-90
2021/09/21 09:03:05;;;;;;;;;;;;;;;20.88;35.43;102364.25;4965963;28;96825;-87
2021/09/21 09:05:43;;;;;;;;;;;;;;;19.85;36.44;102373.09;4957646;28;96910;-86
2021/09/21 09:08:10;;;;;;;;;;;;;;;21.07;34.87;102367.69;4964849;28;96754;-86
2021/09/21 09:10:40;;;;;;;;;;;;;;;21.43;34.89;102370.25;4963086;28;97880;-87
2021/09/21 09:13:16;;;;;;;;;;;;;;;21.58;34.29;102369.41;4957307;28;99432;-86
2021/09/21 09:15:53;;;;;;;;;;;;;;;20.95;35.74;102368.38;4968621;28;96821;-87
2021/09/21 09:18:25;;;;;;;;;;;;;;;21.31;35.30;102376.31;4976309;28;96739;-87
2021/09/21 09:20:52;;;;;;;;;;;;;;;21.70;34.66;102371.41;4961764;28;101266;-87
2021/09/21 09:26:05;;;;;;;;;;;;;;;21.73;34.34;102376.59;4957110;28;96790;-87
2021/09/21 09:28:35;;;;;;;;;;;;;;;21.53;34.87;102366.09;4957958;28;96783;-86
2021/09/21 09:31:02;;;;;;;;;;;;;;;20.66;36.55;102365.41;4962964;28;99146;-87
2021/09/21 09:33:33;;;;;;;;;;;;;;;20.86;35.97;102360.81;4965032;28;99888;-88
2021/09/21 09:36:01;;;;;;;;;;;;;;;21.17;35.98;102377.06;4963641;28;96830;-87
2021/09/21 09:38:32;;;;;;;;;;;;;;;21.33;35.29;102374.41;4966949;28;96808;-94
2021/09/21 09:41:00;;;;;;;;;;;;;;;20.85;35.63;102368.00;4948776;28;99364;-85
2021/09/21 09:43:28;;;;;;;;;;;;;;;21.39;35.22;102368.69;4963220;28;96832;-86
2021/09/21 09:45:56;;;;;;;;;;;;;;;21.43;34.76;102365.75;4958776;28;96804;-86
2021/09/21 09:48:28;;;;;;;;;;;;;;;21.52;34.48;102363.50;4965875;28;96831;-86
2021/09/21 09:50:56;;;;;;;;;;;;;;;21.47;34.43;102361.91;4963553;28;99463;-87
2021/09/21 09:53:26;;;;;;;;;;;;;;;21.12;35.06;102356.72;4965702;28;98959;-86
2021/09/21 09:55:54;;;;;;;;;;;;;;;21.21;34.51;102361.63;4962974;28;96776;-87
2021/09/21 09:58:25;;;;;;;;;;;;;;;20.59;35.45;102353.25;4963880;28;96857;-85
2021/09/21 10:00:54;;;;;;;;;;;;;;;21.28;34.03;102349.56;4962124;28;97905;-88
2021/09/21 10:06:00;;;;;;;;;;;;;;;21.12;34.65;102351.34;4963604;28;96656;-87
2021/09/21 10:08:27;;;;;;;;;;;;;;;20.92;34.97;102358.66;4966024;28;96615;-87
2021/09/21 10:10:56;;;;;;;;;;;;;;;21.17;34.83;102352.88;4963291;28;98995;-87
2021/09/21 10:13:26;;;;;;;;;;;;;;;21.70;34.29;102349.88;4978782;28;98159;-87
2021/09/21 10:15:54;;;;;;;;;;;;;;;22.05;33.91;102347.91;4971098;28;96749;-87
2021/09/21 10:18:23;;;;;;;;;;;;;;;21.58;34.11;102342.50;4972026;28;97687;-90
2021/09/21 10:23:39;;;;;;;;;;;;;;;20.46;35.47;102344.09;4976778;28;98670;-92
2021/09/21 10:26:17;;;;;;;;;;;;;;;21.24;33.95;102354.28;4970748;28;96708;-86
2021/09/21 10:28:51;;;;;;;;;;;;;;;21.50;33.53;102354.63;4962023;28;96724;-86
2021/09/21 10:31:19;;;;;;;;;;;;;;;20.98;34.40;102357.47;4972541;28;100186;-87
2021/09/21 10:33:47;;;;;;;;;;;;;;;21.38;34.11;102361.59;4971339;28;99404;-88
2021/09/21 10:36:18;;;;;;;;;;;;;;;21.27;34.69;102354.09;4969316;28;96610;-88
2021/09/21 10:38:59;;;;;;;;;;;;;;;20.09;37.06;102357.59;4971616;28;96680;-88
2021/09/21 10:41:27;;;;;;;;;;;;;;;20.61;35.97;102347.81;4968849;28;99862;-88
2021/09/21 10:44:02;;;;;;;;;;;;;;;20.42;36.99;102352.38;4981878;28;100772;-87
2021/09/21 10:46:29;;;;;;;;;;;;;;;20.94;35.58;102354.06;4956963;28;96751;-87
2021/09/21 10:51:48;;;;;;;;;;;;;;;21.01;36.07;102363.53;4963261;28;100247;-89
2021/09/21 10:54:15;;;;;;;;;;;;;;;21.21;36.17;102365.19;4969489;28;99919;-88
2021/09/21 10:56:42;;;;;;;;;;;;;;;20.57;37.91;102371.25;4969023;28;96655;-89
2021/09/21 10:59:28;;;;;;;;;;;;;;;20.60;38.11;102368.44;4973733;28;96971;-89
2021/09/21 11:04:41;;;;;;;;;;;;;;;19.62;38.93;102392.13;4984974;28;98901;-87
2021/09/21 11:07:08;;;;;;;;;;;;;;;19.79;38.11;102392.16;4974572;28;96273;-90
2021/09/21 11:09:37;;;;;;;;;;;;;;;19.34;39.11;102390.69;4985534;28;96760;-90
2021/09/21 11:14:52;;;;;;;;;;;;;;;19.68;38.20;102398.06;4984284;28;98413;-89
2021/09/21 11:20:05;;;;;;;;;;;;;;;20.19;37.03;102400.03;4980630;28;96105;-91
2021/09/21 11:22:32;;;;;;;;;;;;;;;20.57;35.90;102406.16;4994945;28;100406;-90
2021/09/21 11:25:02;;;;;;;;;;;;;;;20.33;36.91;102396.69;4968697;28;96927;-84
2021/09/21 11:27:30;;;;;;;;;;;;;;;20.20;37.19;102385.66;4969007;28;97308;-82
2021/09/21 11:30:02;;;;;;;;;;;;;;;20.83;36.08;102383.31;4966719;28;97004;-84
2021/09/21 11:35:13;;;;;;;;;;;;;;;19.77;37.30;102378.81;4967723;28;98660;-84
2021/09/21 11:37:43;;;;;;;;;;;;;;;20.08;37.10;102378.22;4963153;28;96708;-85
2021/09/21 11:40:10;;;;;;;;;;;;;;;20.02;36.99;102381.19;4973021;28;97502;-83
2021/09/21 11:42:37;;;;;;;;;;;;;;;20.73;35.58;102367.78;4967353;28;101089;-84
2021/09/21 11:45:08;;;;;;;;;;;;;;;21.26;34.35;102378.38;4971720;28;99960;-85
2021/09/21 11:47:37;;;;;;;;;;;;;;;20.82;35.41;102364.59;4982094;28;96762;-85
2021/09/21 11:50:07;;;;;;;;;;;;;;;21.08;34.49;102369.44;4973481;28;96889;-87
2021/09/21 11:52:35;;;;;;;;;;;;;;;21.95;33.27;102370.88;4965960;28;98059;-86
2021/09/21 11:55:04;;;;;;;;;;;;;;;21.85;33.68;102365.16;4967296;28;96770;-85
2021/09/21 11:57:30;;;;;;;;;;;;;;;21.93;33.54;102369.19;4967188;28;96772;-85
2021/09/21 11:59:57;;;;;;;;;;;;;;;21.31;34.36;102354.81;4968841;28;98144;-85
2021/09/21 12:02:33;;;;;;;;;;;;;;;21.66;33.87;102355.53;4975128;28;99986;-86
2021/09/21 12:04:59;;;;;;;;;;;;;;;21.84;33.86;102358.03;4981147;28;99845;-84
2021/09/21 12:07:26;;;;;;;;;;;;;;;20.21;36.10;102354.31;4977316;28;96919;-86
2021/09/21 12:09:53;;;;;;;;;;;;;;;20.01;36.44;102352.63;4979916;28;96833;-85
2021/09/21 12:12:22;;;;;;;;;;;;;;;19.26;37.73;102355.31;4979949;28;96677;-84
2021/09/21 12:14:55;;;;;;;;;;;;;;;20.24;36.15;102363.06;4975449;28;99680;-85
2021/09/21 12:17:22;;;;;;;;;;;;;;;20.57;36.08;102370.38;4990016;28;96762;-85
2021/09/21 12:20:00;;;;;;;;;;;;;;;20.90;35.02;102363.25;4974008;28;98692;-85
2021/09/21 12:22:28;;;;;;;;;;;;;;;20.83;35.32;102363.66;4978526;28;97554;-86
2021/09/21 12:25:05;;;;;;;;;;;;;;;21.29;34.64;102364.75;4983767;28;97201;-85
2021/09/21 12:27:37;;;;;;;;;;;;;;;21.32;34.61;102361.91;4974713;28;96798;-86
2021/09/21 12:30:08;;;;;;;;;;;;;;;20.63;35.49;102367.38;4981188;28;96759;-86
2021/09/21 12:32:35;;;;;;;;;;;;;;;20.34;35.64;102355.47;4974898;28;97099;-86
2021/09/21 12:35:07;;;;;;;;;;;;;;;21.20;34.57;102347.31;4969951;28;100124;-88
2021/09/21 12:37:38;;;;;;;;;;;;;;;21.26;34.40;102349.69;4963595;28;96889;-86
2021/09/21 12:40:09;;;;;;;;;;;;;;;20.72;34.75;102341.88;4966960;28;97054;-85
2021/09/21 12:42:37;;;;;;;;;;;;;;;21.71;33.24;102343.56;4982183;28;99849;-87
2021/09/21 12:45:05;;;;;;;;;;;;;;;21.65;33.46;102341.22;4978406;28;99359;-84
2021/09/21 12:47:34;;;;;;;;;;;;;;;21.11;34.07;102341.53;4982017;28;97044;-86
2021/09/21 12:50:22;;;;;;;;;;;;;;;21.22;33.61;102340.03;4973843;28;96858;-87
2021/09/21 12:52:57;;;;;;;;;;;;;;;20.38;35.42;102332.88;4973296;28;99436;-86
2021/09/21 12:58:10;;;;;;;;;;;;;;;21.24;34.09;102322.00;4972410;28;96899;-86
2021/09/21 13:00:38;;;;;;;;;;;;;;;21.20;34.62;102323.13;4972389;28;97017;-86
2021/09/21 13:03:05;;;;;;;;;;;;;;;20.73;34.90;102328.34;4970648;28;100247;-86
2021/09/21 13:05:35;;;;;;;;;;;;;;;20.96;34.70;102324.44;4967617;28;98101;-87
2021/09/21 13:08:06;;;;;;;;;;;;;;;20.96;34.84;102322.59;4970436;28;96860;-87
2021/09/21 13:10:36;;;;;;;;;;;;;;;21.35;34.18;102322.28;4974627;28;96709;-86
2021/09/21 13:13:04;;;;;;;;;;;;;;;21.08;34.78;102323.75;4955438;28;99270;-86
2021/09/21 13:15:31;;;;;;;;;;;;;;;20.90;34.96;102324.75;4970952;28;100729;-87
2021/09/21 13:17:58;;;;;;;;;;;;;;;20.80;34.72;102318.16;4972054;28;96814;-87
2021/09/21 13:23:11;;;;;;;;;;;;;;;21.01;34.61;102327.72;4971940;28;99914;-87
2021/09/21 13:25:39;;;;;;;;;;;;;;;20.88;34.50;102329.34;4980609;28;98964;-84
2021/09/21 13:28:10;;;;;;;;;;;;;;;20.88;34.65;102332.91;4980144;28;95955;-87
2021/09/21 13:30:49;;;;;;;;;;;;;;;20.73;35.24;102336.41;4983497;28;95981;-83
2021/09/21 13:33:16;;;;;;;;;;;;;;;20.52;35.16;102321.44;4964622;28;98172;-86
2021/09/21 13:35:43;;;;;;;;;;;;;;;20.43;35.49;102311.16;4979051;28;97777;-84
2021/09/21 13:38:21;;;;;;;;;;;;;;;20.68;35.62;102308.91;4981924;28;98083;-85
2021/09/21 13:40:47;;;;;;;;;;;;;;;21.00;35.02;102310.72;4976191;28;96716;-85
2021/09/21 13:43:15;;;;;;;;;;;;;;;20.07;36.17;102308.53;4981609;28;97691;-81
2021/09/21 13:45:42;;;;;;;;;;;;;;;19.94;36.55;102308.28;4983680;28;96917;-83
2021/09/21 13:48:10;;;;;;;;;;;;;;;20.33;36.34;102304.53;4982524;28;96090;-85
2021/09/21 13:50:41;;;;;;;;;;;;;;;20.66;35.56;102308.16;4984366;28;96088;-84